createdAt,value
2023-02-02T00:01:49.914Z,101987.66
2023-02-02T00:04:20.488Z,101994.47
2023-02-02T00:06:47.156Z,101998.56
2023-02-02T00:09:14.904Z,102002.00
2023-02-02T00:11:41.804Z,102008.16
2023-02-02T00:14:08.341Z,102009.72
2023-02-02T00:16:36.456Z,101999.19
2023-02-02T00:19:07.715Z,101997.72
2023-02-02T00:21:34.538Z,102003.69
2023-02-02T00:24:01.680Z,102002.94
2023-02-02T00:26:28.022Z,101996.69
2023-02-02T00:28:54.405Z,102008.03
2023-02-02T00:31:20.843Z,102011.13
2023-02-02T00:33:47.867Z,102008.69
2023-02-02T00:36:14.325Z,102008.59
2023-02-02T00:38:40.633Z,102002.56
2023-02-02T00:41:07.291Z,102007.69
2023-02-02T00:43:33.957Z,102002.47
2023-02-02T00:46:00.292Z,101999.94
2023-02-02T00:48:26.670Z,102006.72
2023-02-02T00:50:53.235Z,102017.09
2023-02-02T00:53:19.700Z,102014.47
2023-02-02T00:55:45.955Z,102014.66
2023-02-02T00:58:12.238Z,102008.59
2023-02-02T01:00:38.639Z,102011.22
2023-02-02T01:03:06.033Z,102006.81
2023-02-02T01:05:33.038Z,102009.34
2023-02-02T01:07:59.379Z,102000.69
2023-02-02T01:10:26.054Z,102001.44
2023-02-02T01:12:52.430Z,102010.28
2023-02-02T01:15:19.145Z,102006.81
2023-02-02T01:17:45.466Z,102017.25
2023-02-02T01:20:15.876Z,102021.56
2023-02-02T01:22:42.222Z,102020.72
2023-02-02T01:25:08.540Z,102019.03
2023-02-02T01:27:34.851Z,102018.31
2023-02-02T01:30:01.187Z,102013.25
2023-02-02T01:32:27.583Z,102025.56
2023-02-02T01:34:54.009Z,102021.94
2023-02-02T01:37:22.069Z,102028.09
2023-02-02T01:39:48.983Z,102034.03
2023-02-02T01:42:19.895Z,102031.53
2023-02-02T01:44:52.633Z,102028.16
2023-02-02T01:47:20.457Z,102044.13
2023-02-02T01:49:47.112Z,102036.94
2023-02-02T01:52:14.906Z,102040.69
2023-02-02T01:54:44.726Z,102038.06
2023-02-02T01:57:19.391Z,102034.81
2023-02-02T01:59:47.654Z,102042.34
2023-02-02T02:02:14.307Z,102039.13
2023-02-02T02:04:42.469Z,102039.84
2023-02-02T02:07:08.965Z,102049.44
2023-02-02T02:09:35.602Z,102044.50
2023-02-02T02:12:01.946Z,102035.47
2023-02-02T02:14:47.180Z,102037.41
2023-02-02T02:17:22.385Z,102041.91
2023-02-02T02:20:07.473Z,102038.19
2023-02-02T02:23:01.556Z,102034.63
2023-02-02T02:25:46.350Z,102033.69
2023-02-02T02:28:20.548Z,102032.00
2023-02-02T02:31:05.670Z,102020.91
2023-02-02T02:33:32.047Z,102022.59
2023-02-02T02:36:04.211Z,102026.13
2023-02-02T02:38:35.923Z,102027.09
2023-02-02T02:41:06.160Z,102031.47
2023-02-02T02:43:39.519Z,102028.00
2023-02-02T02:46:07.226Z,102030.06
2023-02-02T02:48:33.549Z,102030.16
2023-02-02T02:51:05.782Z,102023.91
2023-02-02T02:53:33.499Z,102025.84
2023-02-02T02:56:20.126Z,102019.63
2023-02-02T02:58:46.377Z,102019.56
2023-02-02T03:01:36.782Z,102015.63
2023-02-02T03:04:10.601Z,102008.06
2023-02-02T03:07:03.316Z,102009.66
2023-02-02T03:09:34.770Z,102010.41
2023-02-02T03:12:01.450Z,102005.25
2023-02-02T03:14:27.883Z,101995.59
2023-02-02T03:16:54.208Z,101997.38
2023-02-02T03:19:20.909Z,102008.84
2023-02-02T03:21:47.381Z,102007.31
2023-02-02T03:24:13.726Z,102008.19
2023-02-02T03:26:40.176Z,102014.06
2023-02-02T03:29:06.532Z,102017.50
2023-02-02T03:31:32.862Z,102016.28
2023-02-02T03:33:59.188Z,102027.47
2023-02-02T03:36:25.557Z,102025.78
2023-02-02T03:38:51.906Z,102035.19
2023-02-02T03:41:18.222Z,102036.13
2023-02-02T03:43:44.692Z,102042.72
2023-02-02T03:46:11.159Z,102033.03
2023-02-02T03:48:38.161Z,102034.72
2023-02-02T03:51:12.452Z,102026.25
2023-02-02T03:53:39.653Z,102025.22
2023-02-02T03:56:06.226Z,102030.59
2023-02-02T03:58:32.666Z,102027.75
2023-02-02T04:01:03.567Z,102034.53
2023-02-02T04:03:30.224Z,102033.69
2023-02-02T04:05:56.524Z,102031.00
2023-02-02T04:08:22.825Z,102024.94
2023-02-02T04:10:49.102Z,102031.94
2023-02-02T04:13:15.619Z,102026.53
2023-02-02T04:15:42.183Z,102016.72
2023-02-02T04:18:08.523Z,102013.19
2023-02-02T04:20:34.825Z,102012.16
2023-02-02T04:23:01.091Z,102014.84
2023-02-02T04:25:27.538Z,102014.59
2023-02-02T04:27:53.943Z,102015.34
2023-02-02T04:30:20.269Z,102017.84
2023-02-02T04:32:46.861Z,102013.25
2023-02-02T04:35:13.256Z,102018.31
2023-02-02T04:37:39.516Z,102007.03
2023-02-02T04:40:06.096Z,102001.72
2023-02-02T04:42:34.247Z,102007.88
2023-02-02T04:45:00.604Z,102002.63
2023-02-02T04:47:26.865Z,102012.91
2023-02-02T04:49:53.163Z,102010.16
2023-02-02T04:52:19.439Z,102021.25
2023-02-02T04:54:45.760Z,102031.63
2023-02-02T04:57:12.175Z,102033.31
2023-02-02T04:59:39.897Z,102031.53
2023-02-02T05:02:09.225Z,102023.78
2023-02-02T05:04:35.666Z,102026.22
2023-02-02T05:07:01.962Z,102024.44
2023-02-02T05:09:28.266Z,102029.75
2023-02-02T05:11:54.620Z,102034.06
2023-02-02T05:14:20.957Z,102026.84
2023-02-02T05:16:47.349Z,102036.28
2023-02-02T05:19:16.683Z,102035.63
2023-02-02T05:21:45.871Z,102035.41
2023-02-02T05:24:12.273Z,102030.31
2023-02-02T05:26:38.625Z,102036.19
2023-02-02T05:29:06.699Z,102036.06
2023-02-02T05:31:33.253Z,102037.75
2023-02-02T05:33:59.734Z,102041.19
2023-02-02T05:36:26.031Z,102036.81
2023-02-02T05:38:52.429Z,102033.38
2023-02-02T05:41:18.730Z,102033.56
2023-02-02T05:43:45.092Z,102042.03
2023-02-02T05:46:11.965Z,102036.81
2023-02-02T05:48:38.380Z,102030.66
2023-02-02T05:51:08.288Z,102034.84
2023-02-02T05:53:34.592Z,102035.97
2023-02-02T05:56:01.028Z,102032.13
2023-02-02T05:58:28.085Z,102040.88
2023-02-02T06:00:56.590Z,102035.59
2023-02-02T06:03:23.405Z,102035.78
2023-02-02T06:05:49.839Z,102039.97
2023-02-02T06:08:16.434Z,102036.41
2023-02-02T06:10:43.043Z,102035.59
2023-02-02T06:13:09.499Z,102041.53
2023-02-02T06:15:36.489Z,102045.94
2023-02-02T06:18:03.677Z,102042.59
2023-02-02T06:20:30.320Z,102051.25
2023-02-02T06:22:56.804Z,102047.50
2023-02-02T06:25:24.000Z,102053.69
2023-02-02T06:27:50.613Z,102058.06
2023-02-02T06:30:17.108Z,102059.66
2023-02-02T06:32:43.484Z,102055.25
2023-02-02T06:35:09.812Z,102059.44
2023-02-02T06:37:38.915Z,102064.78
2023-02-02T06:40:06.585Z,102068.88
2023-02-02T06:42:32.904Z,102075.00
2023-02-02T06:44:59.189Z,102076.78
2023-02-02T06:47:26.961Z,102084.53
2023-02-02T06:49:53.317Z,102089.84
2023-02-02T06:52:19.578Z,102090.03
2023-02-02T06:54:45.897Z,102088.47
2023-02-02T06:57:12.219Z,102093.59
2023-02-02T06:59:40.927Z,102097.78
2023-02-02T07:02:10.749Z,102098.81
2023-02-02T07:04:38.420Z,102097.78
2023-02-02T07:07:05.337Z,102098.16
2023-02-02T07:09:36.022Z,102097.41
2023-02-02T07:12:02.308Z,102100.78
2023-02-02T07:14:28.631Z,102097.50
2023-02-02T07:16:55.017Z,102106.09
2023-02-02T07:19:21.286Z,102097.31
2023-02-02T07:21:47.700Z,102104.50
2023-02-02T07:24:13.979Z,102102.81
2023-02-02T07:26:40.333Z,102105.25
2023-02-02T07:29:06.812Z,102102.06
2023-02-02T07:31:36.084Z,102106.09
2023-02-02T07:34:03.021Z,102099.19
2023-02-02T07:36:29.297Z,102110.47
2023-02-02T07:39:00.245Z,102112.91
2023-02-02T07:41:27.811Z,102114.94
2023-02-02T07:43:54.479Z,102123.34
2023-02-02T07:46:21.283Z,102128.66
2023-02-02T07:48:48.007Z,102124.28
2023-02-02T07:51:15.986Z,102125.09
2023-02-02T07:53:46.803Z,102130.53
2023-02-02T07:56:14.392Z,102132.19
2023-02-02T07:58:41.220Z,102139.28
2023-02-02T08:01:08.758Z,102141.91
2023-02-02T08:03:36.954Z,102139.38
2023-02-02T08:06:09.289Z,102150.84
2023-02-02T08:08:35.852Z,102151.59
2023-02-02T08:11:02.219Z,102159.34
2023-02-02T08:13:28.987Z,102155.03
2023-02-02T08:15:58.016Z,102155.69
2023-02-02T08:18:26.907Z,102143.59
2023-02-02T08:20:53.591Z,102148.91
2023-02-02T08:23:23.745Z,102155.03
2023-02-02T08:25:50.637Z,102151.59
2023-02-02T08:28:17.328Z,102148.16
2023-02-02T08:30:43.848Z,102154.22
2023-02-02T08:33:10.211Z,102158.50
2023-02-02T08:35:42.942Z,102161.00
2023-02-02T08:38:09.528Z,102162.03
2023-02-02T08:40:36.273Z,102172.19
2023-02-02T08:43:03.657Z,102173.59
2023-02-02T08:46:03.165Z,102167.44
2023-02-02T08:48:19.586Z,102177.16
2023-02-02T08:50:51.619Z,102188.91
2023-02-02T08:53:17.892Z,102193.94
2023-02-02T08:55:44.184Z,102199.91
2023-02-02T08:58:10.493Z,102201.47
2023-02-02T09:00:36.783Z,102195.41
2023-02-02T09:03:03.247Z,102194.59
2023-02-02T09:05:29.624Z,102195.25
2023-02-02T09:07:56.000Z,102200.38
2023-02-02T09:10:22.429Z,102197.78
2023-02-02T09:12:48.748Z,102210.72
2023-02-02T09:15:15.061Z,102213.44
2023-02-02T09:17:41.375Z,102209.88
2023-02-02T09:20:07.878Z,102214.06
2023-02-02T09:22:34.205Z,102210.44
2023-02-02T09:25:00.545Z,102229.19
2023-02-02T09:27:26.851Z,102225.44
2023-02-02T09:29:53.567Z,102244.22
2023-02-02T09:32:19.886Z,102246.91
2023-02-02T09:34:46.148Z,102243.91
2023-02-02T09:37:12.467Z,102251.56
2023-02-02T09:39:38.759Z,102256.59
2023-02-02T09:42:04.982Z,102255.03
2023-02-02T09:44:34.051Z,102253.81
2023-02-02T09:47:00.471Z,102257.16
2023-02-02T09:49:47.012Z,102268.47
2023-02-02T09:52:18.572Z,102271.06
2023-02-02T09:54:46.589Z,102268.16
2023-02-02T09:57:16.587Z,102267.50
2023-02-02T09:59:43.856Z,102262.19
2023-02-02T10:02:19.533Z,102266.59
2023-02-02T10:04:49.226Z,102281.44
2023-02-02T10:07:18.692Z,102288.16
2023-02-02T10:09:48.804Z,102279.47
2023-02-02T10:12:31.289Z,102279.75
2023-02-02T10:15:05.234Z,102286.19
2023-02-02T10:17:53.532Z,102292.34
2023-02-02T10:20:28.351Z,102288.41
2023-02-02T10:22:58.057Z,102292.44
2023-02-02T10:25:27.254Z,102298.59
2023-02-02T10:27:59.999Z,102300.16
2023-02-02T10:30:36.125Z,102307.25
2023-02-02T10:33:02.451Z,102300.97
2023-02-02T10:35:28.727Z,102312.34
2023-02-02T10:38:02.919Z,102308.81
2023-02-02T10:40:52.231Z,102306.81
2023-02-02T10:43:47.500Z,102312.16
2023-02-02T10:46:34.228Z,102315.97
2023-02-02T10:49:11.131Z,102321.66
2023-02-02T10:51:37.991Z,102316.13
2023-02-02T10:54:08.847Z,102317.94
2023-02-02T10:56:37.400Z,102314.25
2023-02-02T10:59:13.656Z,102312.13
2023-02-02T11:01:40.437Z,102308.47
2023-02-02T11:04:25.539Z,102315.28
2023-02-02T11:06:52.891Z,102314.25
2023-02-02T11:09:31.525Z,102318.25
2023-02-02T11:12:03.878Z,102319.41
2023-02-02T11:14:45.013Z,102321.06
2023-02-02T11:17:23.525Z,102305.03
2023-02-02T11:19:50.318Z,102311.09
2023-02-02T11:22:28.627Z,102311.66
2023-02-02T11:24:55.517Z,102308.47
2023-02-02T11:27:32.735Z,102323.41
2023-02-02T11:29:59.932Z,102326.81
2023-02-02T11:32:28.737Z,102311.56
2023-02-02T11:35:04.211Z,102310.06
2023-02-02T11:37:31.357Z,102311.41
2023-02-02T11:40:17.567Z,102306.34
2023-02-02T11:42:46.787Z,102300.16
2023-02-02T11:45:18.241Z,102293.22
2023-02-02T11:47:45.130Z,102307.75
2023-02-02T11:50:26.461Z,102295.81
2023-02-02T11:52:53.180Z,102308.00
2023-02-02T11:55:26.051Z,102303.66
2023-02-02T11:58:12.174Z,102302.31
2023-02-02T12:00:48.563Z,102308.03
2023-02-02T12:03:27.337Z,102310.81
2023-02-02T12:05:53.729Z,102311.31
2023-02-02T12:08:20.541Z,102306.94
2023-02-02T12:10:49.912Z,102310.16
2023-02-02T12:13:16.212Z,102308.50
2023-02-02T12:15:48.924Z,102307.75
2023-02-02T12:18:34.125Z,102306.63
2023-02-02T12:21:17.854Z,102304.84
2023-02-02T12:23:50.886Z,102302.97
2023-02-02T12:26:23.304Z,102311.03
2023-02-02T12:29:08.567Z,102305.59
2023-02-02T12:31:34.926Z,102310.66
2023-02-02T12:34:27.896Z,102310.72
2023-02-02T12:37:03.418Z,102297.22
2023-02-02T12:39:40.690Z,102302.97
2023-02-02T12:42:33.029Z,102301.00
2023-02-02T12:45:20.803Z,102302.44
2023-02-02T12:48:00.904Z,102296.56
2023-02-02T12:50:27.840Z,102306.28
2023-02-02T12:53:07.089Z,102300.09
2023-02-02T12:55:54.198Z,102297.09
2023-02-02T12:58:27.914Z,102294.47
2023-02-02T13:01:07.607Z,102296.44
2023-02-02T13:03:45.675Z,102301.75
2023-02-02T13:06:11.930Z,102301.88
2023-02-02T13:08:47.333Z,102297.56
2023-02-02T13:11:31.083Z,102311.09
2023-02-02T13:14:00.204Z,102309.53
2023-02-02T13:16:29.902Z,102303.47
2023-02-02T13:19:00.236Z,102307.75
2023-02-02T13:21:28.718Z,102302.72
2023-02-02T13:24:01.212Z,102309.63
2023-02-02T13:26:29.250Z,102314.28
2023-02-02T13:29:16.528Z,102299.56
2023-02-02T13:32:06.231Z,102301.59
2023-02-02T13:34:41.452Z,102303.75
2023-02-02T13:37:17.977Z,102305.50
2023-02-02T13:39:47.848Z,102308.22
2023-02-02T13:42:36.503Z,102308.03
2023-02-02T13:45:15.407Z,102309.81
2023-02-02T13:47:46.376Z,102313.09
2023-02-02T13:50:16.651Z,102309.53
2023-02-02T13:53:02.028Z,102302.72
2023-02-02T13:55:31.488Z,102301.78
2023-02-02T13:58:00.619Z,102305.63
2023-02-02T14:00:30.519Z,102316.97
2023-02-02T14:02:59.515Z,102312.78
2023-02-02T14:05:34.380Z,102316.06
2023-02-02T14:08:01.980Z,102325.66
2023-02-02T14:10:31.670Z,102322.03
2023-02-02T14:13:07.079Z,102322.03
2023-02-02T14:15:37.671Z,102328.09
2023-02-02T14:18:04.105Z,102326.50
2023-02-02T14:20:44.577Z,102316.91
2023-02-02T14:23:29.549Z,102323.41
2023-02-02T14:26:12.106Z,102322.38
2023-02-02T14:28:40.356Z,102324.81
2023-02-02T14:31:17.362Z,102326.97
2023-02-02T14:33:47.441Z,102325.19
2023-02-02T14:36:15.118Z,102332.56
2023-02-02T14:39:02.916Z,102329.75
2023-02-02T14:42:00.461Z,102331.81
2023-02-02T14:44:27.142Z,102332.56
2023-02-02T14:46:53.432Z,102334.25
2023-02-02T14:49:24.077Z,102340.03
2023-02-02T14:51:52.341Z,102335.94
2023-02-02T14:54:21.681Z,102345.84
2023-02-02T14:56:49.935Z,102340.69
2023-02-02T14:59:20.032Z,102344.53
2023-02-02T15:01:54.174Z,102344.91
2023-02-02T15:04:21.015Z,102347.59
2023-02-02T15:06:48.331Z,102363.28
2023-02-02T15:09:21.054Z,102355.19
2023-02-02T15:12:01.672Z,102361.06
2023-02-02T15:14:28.248Z,102356.00
2023-02-02T15:16:55.032Z,102359.66
2023-02-02T15:19:24.790Z,102358.78
2023-02-02T15:21:53.622Z,102352.81
2023-02-02T15:24:23.077Z,102351.06
2023-02-02T15:26:50.089Z,102350.66
2023-02-02T15:29:20.838Z,102362.72
2023-02-02T15:31:50.083Z,102361.09
2023-02-02T15:34:22.705Z,102364.59
2023-02-02T15:36:51.568Z,102360.28
2023-02-02T15:39:31.887Z,102360.94
2023-02-02T15:42:17.496Z,102359.25
2023-02-02T15:44:43.828Z,102357.88
2023-02-02T15:47:14.448Z,102362.06
2023-02-02T15:49:41.211Z,102366.63
2023-02-02T15:52:19.328Z,102369.31
2023-02-02T15:54:53.242Z,102365.59
2023-02-02T15:57:28.470Z,102367.94
2023-02-02T15:59:55.150Z,102378.56
2023-02-02T16:02:31.537Z,102362.72
2023-02-02T16:04:57.885Z,102373.16
2023-02-02T16:07:28.520Z,102370.47
2023-02-02T16:09:54.962Z,102379.16
2023-02-02T16:12:22.374Z,102378.47
2023-02-02T16:14:53.355Z,102380.16
2023-02-02T16:17:20.629Z,102381.00
2023-02-02T16:19:47.955Z,102389.75
2023-02-02T16:22:21.966Z,102385.28
2023-02-02T16:24:54.653Z,102394.91
2023-02-02T16:27:26.352Z,102389.75
2023-02-02T16:29:57.227Z,102407.13
2023-02-02T16:32:27.092Z,102405.34
2023-02-02T16:34:55.916Z,102414.03
2023-02-02T16:37:36.693Z,102412.16
2023-02-02T16:40:16.980Z,102418.13
2023-02-02T16:42:44.644Z,102414.59
2023-02-02T16:45:30.838Z,102420.88
2023-02-02T16:48:20.527Z,102430.38
2023-02-02T16:50:48.571Z,102428.78
2023-02-02T16:53:25.683Z,102442.69
2023-02-02T16:55:52.262Z,102450.53
2023-02-02T16:58:23.381Z,102440.06
2023-02-02T17:01:16.936Z,102436.63
2023-02-02T17:03:53.660Z,102435.88
2023-02-02T17:06:41.657Z,102441.56
2023-02-02T17:09:37.586Z,102436.94
2023-02-02T17:12:09.288Z,102449.13
2023-02-02T17:14:49.257Z,102451.66
2023-02-02T17:17:15.701Z,102451.19
2023-02-02T17:19:42.020Z,102448.75
2023-02-02T17:22:08.615Z,102452.22
2023-02-02T17:24:34.965Z,102449.78
2023-02-02T17:27:01.751Z,102467.16
2023-02-02T17:29:28.479Z,102458.38
2023-02-02T17:31:54.808Z,102454.09
2023-02-02T17:34:21.157Z,102466.88
2023-02-02T17:36:47.570Z,102459.88
2023-02-02T17:39:13.968Z,102465.16
2023-02-02T17:41:40.525Z,102459.63
2023-02-02T17:44:07.065Z,102460.31
2023-02-02T17:46:33.616Z,102464.03
2023-02-02T17:49:00.118Z,102469.25
2023-02-02T17:51:26.400Z,102463.19
2023-02-02T17:53:55.388Z,102458.63
2023-02-02T17:56:22.017Z,102464.09
2023-02-02T17:58:48.596Z,102464.09
2023-02-02T18:01:14.978Z,102467.38
2023-02-02T18:03:43.864Z,102461.34
2023-02-02T18:06:10.633Z,102463.28
2023-02-02T18:08:37.188Z,102464.22
2023-02-02T18:11:03.855Z,102464.22
2023-02-02T18:13:30.160Z,102455.53
2023-02-02T18:15:56.837Z,102450.50
2023-02-02T18:18:23.153Z,102439.69
2023-02-02T18:20:50.125Z,102445.81
2023-02-02T18:23:17.120Z,102452.06
2023-02-02T18:25:43.481Z,102455.53
2023-02-02T18:28:10.693Z,102439.28
2023-02-02T18:30:40.734Z,102448.78
2023-02-02T18:33:08.135Z,102433.50
2023-02-02T18:35:34.628Z,102432.59
2023-02-02T18:38:00.931Z,102428.28
2023-02-02T18:40:27.187Z,102429.03
2023-02-02T18:42:53.466Z,102429.97
2023-02-02T18:45:19.759Z,102430.81
2023-02-02T18:47:46.011Z,102429.03
2023-02-02T18:50:12.327Z,102431.56
2023-02-02T18:52:38.775Z,102431.66
2023-02-02T18:55:05.172Z,102442.38
2023-02-02T18:57:31.509Z,102437.75
2023-02-02T18:59:57.822Z,102438.50
2023-02-02T19:02:25.476Z,102440.00
2023-02-02T19:05:10.565Z,102438.41
2023-02-02T19:07:54.977Z,102439.03
2023-02-02T19:10:22.001Z,102434.75
2023-02-02T19:12:54.295Z,102432.22
2023-02-02T19:15:20.921Z,102432.22
2023-02-02T19:17:49.816Z,102425.50
2023-02-02T19:20:23.176Z,102425.66
2023-02-02T19:22:49.991Z,102425.50
2023-02-02T19:25:17.447Z,102432.69
2023-02-02T19:27:43.846Z,102425.66
2023-02-02T19:30:17.543Z,102427.09
2023-02-02T19:32:44.081Z,102421.19
2023-02-02T19:35:18.940Z,102424.84
2023-02-02T19:37:47.210Z,102417.94
2023-02-02T19:40:13.560Z,102429.97
2023-02-02T19:42:47.258Z,102419.63
2023-02-02T19:45:39.755Z,102420.44
2023-02-02T19:48:17.076Z,102417.84
2023-02-02T19:50:43.802Z,102421.47
2023-02-02T19:53:23.804Z,102408.69
2023-02-02T19:55:50.900Z,102422.66
2023-02-02T19:58:22.117Z,102431.19
2023-02-02T20:00:50.513Z,102435.47
2023-02-02T20:03:18.854Z,102439.84
2023-02-02T20:05:47.060Z,102432.88
2023-02-02T20:08:20.957Z,102431.44
2023-02-02T20:10:47.450Z,102424.38
2023-02-02T20:13:19.457Z,102426.13
2023-02-02T20:15:46.500Z,102430.69
2023-02-02T20:18:23.165Z,102434.63
2023-02-02T20:20:54.727Z,102429.59
2023-02-02T20:23:27.327Z,102430.44
2023-02-02T20:25:53.745Z,102441.72
2023-02-02T20:28:32.074Z,102432.28
2023-02-02T20:30:58.501Z,102439.19
2023-02-02T20:33:27.229Z,102439.75
2023-02-02T20:35:54.268Z,102441.63
2023-02-02T20:38:22.498Z,102445.81
2023-02-02T20:40:48.996Z,102454.59
2023-02-02T20:43:16.009Z,102450.88
2023-02-02T20:45:42.370Z,102450.81
2023-02-02T20:48:21.692Z,102448.19
2023-02-02T20:50:48.035Z,102450.69
2023-02-02T20:53:16.397Z,102450.59
2023-02-02T20:55:44.252Z,102439.91
2023-02-02T20:58:11.412Z,102456.22
2023-02-02T21:00:38.575Z,102446.72
2023-02-02T21:03:04.874Z,102445.69
2023-02-02T21:05:31.232Z,102439.47
2023-02-02T21:07:57.481Z,102445.53
2023-02-02T21:10:24.936Z,102440.22
2023-02-02T21:12:52.107Z,102445.25
2023-02-02T21:15:18.951Z,102449.28
2023-02-02T21:17:45.256Z,102448.53
2023-02-02T21:20:12.923Z,102453.66
2023-02-02T21:22:39.176Z,102451.97
2023-02-02T21:25:05.940Z,102443.97
2023-02-02T21:27:32.369Z,102441.34
2023-02-02T21:29:58.688Z,102449.09
2023-02-02T21:32:24.963Z,102447.50
2023-02-02T21:34:51.306Z,102458.03
2023-02-02T21:37:17.681Z,102453.38
2023-02-02T21:39:49.427Z,102442.00
2023-02-02T21:42:16.928Z,102439.47
2023-02-02T21:44:52.324Z,102435.84
2023-02-02T21:47:27.920Z,102433.31
2023-02-02T21:49:55.624Z,102434.91
2023-02-02T21:52:21.898Z,102431.44
2023-02-02T21:54:49.144Z,102437.69
2023-02-02T21:57:16.826Z,102427.25
2023-02-02T21:59:45.471Z,102432.19
2023-02-02T22:02:20.981Z,102430.69
2023-02-02T22:04:47.348Z,102441.81
2023-02-02T22:07:16.757Z,102433.88
2023-02-02T22:09:44.260Z,102447.78
2023-02-02T22:12:17.506Z,102440.69
2023-02-02T22:14:45.291Z,102434.53
2023-02-02T22:17:17.260Z,102429.31
2023-02-02T22:19:43.979Z,102425.66
2023-02-02T22:22:13.373Z,102419.78
2023-02-02T22:24:39.867Z,102411.78
2023-02-02T22:27:17.057Z,102405.72
2023-02-02T22:29:43.328Z,102415.22
2023-02-02T22:32:09.551Z,102425.50
2023-02-02T22:34:35.887Z,102413.34
2023-02-02T22:37:02.178Z,102417.91
2023-02-02T22:39:28.437Z,102423.44
2023-02-02T22:41:54.744Z,102424.25
2023-02-02T22:44:21.018Z,102436.66
2023-02-02T22:46:47.287Z,102424.47
2023-02-02T22:49:13.665Z,102426.03
2023-02-02T22:51:39.918Z,102433.13
2023-02-02T22:54:06.202Z,102426.97
2023-02-02T22:56:32.508Z,102435.38
2023-02-02T22:58:58.817Z,102414.47
2023-02-02T23:01:25.096Z,102405.72
2023-02-02T23:03:51.367Z,102406.72
2023-02-02T23:06:17.726Z,102392.81
2023-02-02T23:08:44.309Z,102392.72
2023-02-02T23:11:10.621Z,102397.94
2023-02-02T23:13:36.938Z,102383.09
2023-02-02T23:16:03.309Z,102379.72
2023-02-02T23:18:29.931Z,102378.53
2023-02-02T23:20:56.233Z,102367.25
2023-02-02T23:23:22.956Z,102355.38
2023-02-02T23:25:49.283Z,102351.94
2023-02-02T23:28:15.648Z,102345.00
2023-02-02T23:30:42.366Z,102343.88
2023-02-02T23:33:09.170Z,102354.16
2023-02-02T23:35:35.577Z,102349.50
2023-02-02T23:38:01.976Z,102351.81
2023-02-02T23:40:28.613Z,102367.63
2023-02-02T23:42:55.106Z,102362.28
2023-02-02T23:45:21.469Z,102357.78
2023-02-02T23:47:47.832Z,102361.25
2023-02-02T23:50:14.364Z,102362.19
2023-02-02T23:52:40.650Z,102350.81
2023-02-02T23:55:07.363Z,102347.44
2023-02-02T23:57:36.405Z,102355.09
